Flight Track Log - Related Links

Times and Time Zones

All times are in EDT time to prevent confusion due to time zone crossing. See the PDT4178 flight status page for this flight to view local times or setup timezone preferences in your user account.

Time Position Orientation Groundspeed Altitude Reporting Facility
EDT Latitude Longitude Course Direction KTS MPH feet Rate Location/Type
Thu 02:52:00 PM 40.1518 -76.5600 99° East  Level Estimated
Thu 02:53:00 PM 40.1431 -76.4910 99° East  Level FlightAware Approximate
Thu 02:54:00 PM 40.1344 -76.4221 99° East  Level FlightAware Approximate
Thu 02:55:00 PM 40.1256 -76.3531 99° East  Level FlightAware Approximate
Thu 02:55:42 PM 40.1500 -76.3833 96° East 247 284 5,000  Level Philadelphia TRACON
Thu 02:56:00 PM 40.1107 -76.2860 98° East  Level Estimated
Thu 02:56:30 PM 40.1500 -76.3167 90° East 246 283 5,000  Level Philadelphia TRACON
Thu 02:57:00 PM 40.1058 -76.2165 95° East  Level FlightAware Approximate
Thu 02:57:30 PM 40.1500 -76.2333 90° East 235 270 4,900  Level Philadelphia TRACON
Thu 02:58:00 PM 40.0901 -76.1497 96° East  Level Estimated
Thu 02:58:30 PM 40.1333 -76.1500 105° East 235 270 5,000  Level Philadelphia TRACON
Thu 02:59:00 PM 40.0880 -76.0799 92° East  Level FlightAware Approximate
Thu 02:59:30 PM 40.1167 -76.0667 105° East 235 270 5,000  Level Philadelphia TRACON
Thu 03:00:00 PM 40.0858 -76.0101 92° East  Level FlightAware Approximate
Thu 03:00:30 PM 40.1167 -75.9833 90° East 234 269 5,000  Level Philadelphia TRACON
Thu 03:01:00 PM 40.0678 -75.9444 96° East  Level Estimated
Thu 03:01:36 PM 40.1000 -75.8833 102° East 235 270 5,000  Level Philadelphia TRACON
Thu 03:02:36 PM 40.0833 -75.8000 105° East 240 276 5,000 -53 Level Philadelphia TRACON
Thu 03:03:30 PM 40.0833 -75.7167 90° East 236 272 4,900 -500 Descending Philadelphia TRACON
Thu 03:04:36 PM 40.0667 -75.6333 105° East 237 273 4,000 -450 Descending Philadelphia TRACON
Thu 03:05:30 PM 40.0667 -75.5667 90° East 208 239 4,000  Level Philadelphia TRACON
Thu 03:06:36 PM 40.0667 -75.4833 90° East 204 235 4,000 48 Level Philadelphia TRACON
Thu 03:07:36 PM 40.0500 -75.4000 105° East 214 246 4,100  Climbing Philadelphia TRACON
Thu 03:08:36 PM 40.0500 -75.3333 90° East 213 245 4,000 -53 Descending Philadelphia TRACON
Thu 03:09:30 PM 40.0500 -75.2667 90° East 211 243 4,000  Level Philadelphia TRACON
Thu 03:10:42 PM 39.9833 -75.2000 143° Southeast 225 259 4,000  Level Philadelphia TRACON
Thu 03:11:42 PM 39.9333 -75.1833 166° South 212 244 4,000  Level Philadelphia TRACON
Thu 03:12:42 PM 39.8667 -75.1500 159° South 213 245 4,000  Level Philadelphia TRACON
Thu 03:13:42 PM 39.8167 -75.1167 153° Southeast 208 239 4,000  Level Philadelphia TRACON
Thu 03:14:42 PM 39.7667 -75.1000 166° South 220 253 4,000  Level Philadelphia TRACON
Thu 03:15:42 PM 39.7333 -75.1333 218° Southwest 161 185 4,000 -200 Level Philadelphia TRACON
Thu 03:16:42 PM 39.7333 -75.1833 270° West 164 189 3,600 -737 Descending Philadelphia TRACON
Thu 03:17:36 PM 39.7833 -75.1833 360° North 180 207 2,600 -850 Descending Philadelphia TRACON
Thu 03:18:42 PM 39.8167 -75.2000 339° North 129 148 1,900 -900 Descending Philadelphia TRACON
Thu 03:19:36 PM 39.8500 -75.2167 339° North 111 128 800 -1,222 Descending Philadelphia TRACON

Login

Don't have an account? Register now (free) for customized features, flight alerts, and more!